Time;durP1;ratioP1;P1;durP2;ratioP2;P2;SDS_P1;SDS_P2;PMS_P1;PMS_P2;Temp;Humidity;BMP_temperature;BMP_pressure;BME280_temperature;BME280_humidity;BME280_pressure;Samples;Min_cycle;Max_cycle;Signal;HPM_P1;HPM_P2
2021/05/19 00:01:44;;;;;;;9.00;2.42;;;12.00;99.90;;;;;;5063961;28;20482;-65
2021/05/19 00:04:10;;;;;;;11.43;2.58;;;12.00;99.90;;;;;;5067181;28;20116;-64
2021/05/19 00:06:36;;;;;;;10.82;2.20;;;11.90;99.90;;;;;;5062665;28;20104;-64
2021/05/19 00:09:08;;;;;;;10.68;2.17;;;11.80;99.90;;;;;;5063587;28;20422;-64
2021/05/19 00:11:34;;;;;;;8.20;2.53;;;11.90;99.90;;;;;;5062018;28;20037;-64
2021/05/19 00:14:00;;;;;;;9.65;2.33;;;11.70;99.90;;;;;;5061779;28;20021;-63
2021/05/19 00:16:26;;;;;;;7.20;2.30;;;11.70;99.90;;;;;;5063076;28;20447;-63
2021/05/19 00:18:51;;;;;;;7.50;2.22;;;11.50;99.90;;;;;;5064946;28;20020;-63
2021/05/19 00:21:18;;;;;;;4.60;2.33;;;11.50;99.90;;;;;;5063760;28;20171;-63
2021/05/19 00:23:43;;;;;;;6.82;2.47;;;11.50;99.90;;;;;;5067576;28;20390;-62
2021/05/19 00:26:09;;;;;;;6.95;2.75;;;11.60;99.90;;;;;;5065542;28;20029;-63
2021/05/19 00:28:34;;;;;;;7.10;2.25;;;11.50;99.90;;;;;;5058401;28;20497;-63
2021/05/19 00:31:04;;;;;;;4.60;2.03;;;11.50;99.90;;;;;;5063957;28;20033;-62
2021/05/19 00:33:30;;;;;;;8.70;2.28;;;11.60;99.90;;;;;;5062349;28;20024;-62
2021/05/19 00:35:55;;;;;;;6.60;2.25;;;11.60;99.90;;;;;;5065600;28;20037;-63
2021/05/19 00:38:21;;;;;;;10.45;2.00;;;11.70;99.90;;;;;;5051437;28;20079;-62
2021/05/19 00:40:48;;;;;;;6.38;2.13;;;11.70;99.90;;;;;;5052993;28;20032;-63
2021/05/19 00:43:14;;;;;;;6.72;2.38;;;11.40;99.90;;;;;;5065153;28;20051;-63
2021/05/19 00:45:41;;;;;;;8.52;2.15;;;11.60;99.90;;;;;;5070219;28;20024;-63
2021/05/19 00:48:09;;;;;;;9.32;2.25;;;11.60;99.90;;;;;;5050227;28;20029;-64
2021/05/19 00:50:36;;;;;;;15.15;2.30;;;11.60;99.90;;;;;;5074345;28;20019;-64
2021/05/19 00:53:02;;;;;;;11.07;2.35;;;11.60;99.90;;;;;;5063165;28;20102;-63
2021/05/19 00:55:28;;;;;;;10.90;3.00;;;11.70;99.90;;;;;;5074493;28;20587;-63
2021/05/19 00:57:56;;;;;;;11.98;2.63;;;11.60;99.90;;;;;;5060821;28;20074;-63
2021/05/19 01:00:24;;;;;;;8.63;2.47;;;11.60;99.90;;;;;;5060950;28;20103;-64
2021/05/19 01:02:50;;;;;;;5.63;2.00;;;11.60;99.90;;;;;;5070163;28;20041;-64
2021/05/19 01:05:24;;;;;;;11.73;2.30;;;11.70;99.90;;;;;;5061603;28;20374;-64
2021/05/19 01:10:34;;;;;;;9.25;2.30;;;11.60;99.90;;;;;;5072801;28;20039;-64
2021/05/19 01:13:00;;;;;;;10.70;2.65;;;11.70;99.90;;;;;;5064719;28;20111;-64
2021/05/19 01:15:26;;;;;;;10.07;2.40;;;11.60;99.90;;;;;;5066347;28;20437;-64
2021/05/19 01:17:52;;;;;;;5.35;1.95;;;11.60;99.90;;;;;;5063493;28;20600;-64
2021/05/19 01:20:17;;;;;;;7.25;2.42;;;11.50;99.90;;;;;;5068661;28;20045;-64
2021/05/19 01:22:43;;;;;;;10.98;1.92;;;11.40;99.90;;;;;;5064990;28;20028;-64
2021/05/19 01:25:10;;;;;;;8.02;2.22;;;11.40;99.90;;;;;;5068775;28;20040;-64
2021/05/19 01:27:37;;;;;;;13.23;2.33;;;11.40;99.90;;;;;;5069829;28;20036;-64
2021/05/19 01:30:07;;;;;;;3.67;1.88;;;11.40;99.90;;;;;;5056475;28;20532;-64
2021/05/19 01:32:32;;;;;;;9.63;1.73;;;11.20;99.90;;;;;;5065221;28;20021;-64
2021/05/19 01:34:58;;;;;;;7.15;2.22;;;11.10;99.90;;;;;;5067547;28;20039;-64
2021/05/19 01:37:24;;;;;;;9.43;2.08;;;11.20;99.90;;;;;;5068543;28;20028;-64
2021/05/19 01:39:50;;;;;;;9.38;1.73;;;11.30;99.90;;;;;;5069415;28;20029;-64
2021/05/19 01:42:16;;;;;;;3.95;1.65;;;11.20;99.90;;;;;;5064341;28;20120;-64
2021/05/19 01:44:42;;;;;;;7.05;2.00;;;11.00;99.90;;;;;;5071049;28;20119;-64
2021/05/19 01:47:09;;;;;;;6.95;1.52;;;11.00;99.90;;;;;;5070469;28;20024;-64
2021/05/19 01:49:40;;;;;;;9.00;2.17;;;11.00;99.90;;;;;;5074791;28;20034;-64
2021/05/19 01:52:08;;;;;;;7.50;1.50;;;10.90;99.90;;;;;;5067391;28;20017;-64
2021/05/19 01:54:36;;;;;;;7.60;1.70;;;10.90;99.90;;;;;;5063660;28;20050;-64
2021/05/19 01:57:05;;;;;;;5.93;1.40;;;11.00;99.90;;;;;;5067224;28;20036;-64
2021/05/19 01:59:30;;;;;;;6.85;1.55;;;11.00;99.90;;;;;;5071763;28;20500;-64
2021/05/19 02:01:56;;;;;;;10.02;1.55;;;10.90;99.90;;;;;;5068675;28;20044;-64
2021/05/19 02:04:22;;;;;;;4.38;1.30;;;10.80;99.90;;;;;;5051216;28;20029;-64
2021/05/19 02:06:55;;;;;;;4.90;1.17;;;10.90;99.90;;;;;;5061860;28;20025;-64
2021/05/19 02:09:22;;;;;;;4.53;1.45;;;10.90;99.90;;;;;;5070943;28;20028;-64
2021/05/19 02:11:48;;;;;;;9.38;1.67;;;11.00;99.90;;;;;;5066826;28;20631;-64
2021/05/19 02:14:15;;;;;;;10.63;1.98;;;10.90;99.90;;;;;;5066553;28;20031;-64
2021/05/19 02:16:41;;;;;;;7.20;1.23;;;10.90;99.90;;;;;;5063056;28;20033;-64
2021/05/19 02:19:09;;;;;;;5.80;1.48;;;10.90;99.90;;;;;;5070481;28;20017;-64
2021/05/19 02:21:42;;;;;;;10.00;1.45;;;10.80;99.90;;;;;;5066999;28;20036;-64
2021/05/19 02:24:09;;;;;;;6.15;1.65;;;10.70;99.90;;;;;;5066317;28;20036;-64
2021/05/19 02:26:35;;;;;;;6.15;1.42;;;10.80;99.90;;;;;;5066299;28;20055;-64
2021/05/19 02:29:02;;;;;;;5.80;1.27;;;10.80;99.90;;;;;;5066667;28;20103;-64
2021/05/19 02:31:28;;;;;;;5.75;1.25;;;10.60;99.90;;;;;;5065652;28;20036;-64
2021/05/19 02:33:54;;;;;;;9.02;1.92;;;10.80;99.90;;;;;;5053525;28;20031;-64
2021/05/19 02:36:19;;;;;;;5.95;1.60;;;10.70;99.90;;;;;;5060539;28;20059;-64
2021/05/19 02:38:45;;;;;;;6.00;1.40;;;10.90;99.90;;;;;;5051626;28;20060;-64
2021/05/19 02:41:14;;;;;;;9.00;1.35;;;10.70;99.90;;;;;;5056731;28;20082;-65
2021/05/19 02:43:39;;;;;;;5.93;1.40;;;10.80;99.90;;;;;;5066271;28;20063;-65
2021/05/19 02:46:05;;;;;;;5.95;1.50;;;10.60;99.90;;;;;;5055585;28;20017;-64
2021/05/19 02:48:31;;;;;;;7.07;1.85;;;10.50;99.90;;;;;;5052540;28;20409;-64
2021/05/19 02:50:57;;;;;;;5.03;1.30;;;10.50;99.90;;;;;;5066246;28;20021;-64
2021/05/19 02:53:23;;;;;;;11.85;1.75;;;10.60;99.90;;;;;;5063278;28;20617;-64
2021/05/19 02:55:48;;;;;;;3.80;1.10;;;10.50;99.90;;;;;;5067332;28;20519;-64
2021/05/19 02:58:14;;;;;;;7.63;1.48;;;10.60;99.90;;;;;;5064995;28;20032;-64
2021/05/19 03:00:40;;;;;;;4.50;1.35;;;10.50;99.90;;;;;;5066291;28;20169;-64
2021/05/19 03:03:06;;;;;;;8.73;1.45;;;10.40;99.90;;;;;;5063169;28;20040;-64
2021/05/19 03:05:32;;;;;;;4.00;1.13;;;10.30;99.90;;;;;;5055464;28;20028;-64
2021/05/19 03:07:58;;;;;;;8.88;1.52;;;10.40;99.90;;;;;;5057811;28;20033;-64
2021/05/19 03:10:23;;;;;;;6.47;1.40;;;10.40;99.90;;;;;;5059042;28;20071;-65
2021/05/19 03:12:52;;;;;;;9.00;1.40;;;10.30;99.90;;;;;;5062946;28;20058;-64
2021/05/19 03:15:20;;;;;;;5.70;1.13;;;10.10;99.90;;;;;;5061598;28;20086;-64
2021/05/19 03:17:47;;;;;;;7.20;1.60;;;10.30;99.90;;;;;;5061153;28;20031;-64
2021/05/19 03:20:13;;;;;;;6.13;1.40;;;10.20;99.90;;;;;;5056653;28;20183;-63
2021/05/19 03:22:39;;;;;;;6.30;1.92;;;10.20;99.90;;;;;;5058684;28;20509;-63
2021/05/19 03:25:06;;;;;;;8.57;1.88;;;10.10;99.90;;;;;;5055400;28;20029;-63
2021/05/19 03:27:32;;;;;;;5.30;1.10;;;10.20;99.90;;;;;;5058345;28;20021;-63
2021/05/19 03:29:58;;;;;;;5.72;1.88;;;10.10;99.90;;;;;;5055394;28;20070;-63
2021/05/19 03:32:24;;;;;;;5.72;1.67;;;10.10;99.90;;;;;;5065420;28;20029;-65
2021/05/19 03:34:50;;;;;;;6.72;1.48;;;10.20;99.90;;;;;;5067039;28;20025;-60
2021/05/19 03:37:16;;;;;;;7.57;1.58;;;10.50;99.90;;;;;;5062836;28;20083;-60
2021/05/19 03:39:41;;;;;;;7.95;1.17;;;10.50;99.90;;;;;;5053215;28;20295;-60
2021/05/19 03:42:07;;;;;;;7.03;1.60;;;10.30;99.90;;;;;;5058719;28;20570;-61
2021/05/19 03:44:33;;;;;;;4.25;1.13;;;10.20;99.90;;;;;;5062715;28;20029;-59
2021/05/19 03:46:59;;;;;;;3.60;1.50;;;10.30;99.90;;;;;;5061056;28;20382;-60
2021/05/19 03:49:28;;;;;;;6.35;1.65;;;10.40;99.90;;;;;;5056535;28;20051;-60
2021/05/19 03:51:54;;;;;;;4.57;1.40;;;10.20;99.90;;;;;;5059242;28;20088;-61
2021/05/19 03:54:19;;;;;;;4.13;1.23;;;10.40;99.90;;;;;;5053734;28;20630;-60
2021/05/19 03:56:45;;;;;;;6.47;1.55;;;10.10;99.90;;;;;;5051680;28;20105;-61
2021/05/19 03:59:11;;;;;;;4.15;1.40;;;10.20;99.90;;;;;;5050879;28;20496;-60
2021/05/19 04:01:37;;;;;;;9.13;1.73;;;10.30;99.90;;;;;;5052894;28;20137;-60
2021/05/19 04:04:03;;;;;;;5.88;1.25;;;10.10;99.90;;;;;;5050549;28;20082;-60
2021/05/19 04:06:29;;;;;;;3.78;1.00;;;10.30;99.90;;;;;;5052020;28;20029;-61
2021/05/19 04:08:57;;;;;;;6.43;1.63;;;10.30;99.90;;;;;;5051096;28;20108;-61
2021/05/19 04:11:23;;;;;;;4.43;1.27;;;10.30;99.90;;;;;;5050206;28;20032;-61
2021/05/19 04:13:49;;;;;;;5.93;1.38;;;10.40;99.90;;;;;;5050839;28;20539;-60
2021/05/19 04:16:15;;;;;;;3.70;1.10;;;10.20;99.90;;;;;;5054732;28;20048;-60
2021/05/19 04:18:41;;;;;;;4.57;1.15;;;10.30;99.90;;;;;;5055794;28;20060;-61
2021/05/19 04:21:07;;;;;;;5.80;1.48;;;10.50;99.90;;;;;;5037792;28;20068;-61
2021/05/19 04:23:34;;;;;;;5.15;1.40;;;10.40;99.90;;;;;;5055398;28;20025;-61
2021/05/19 04:26:00;;;;;;;9.13;1.92;;;10.20;99.90;;;;;;5050581;28;20032;-60
2021/05/19 04:28:25;;;;;;;6.53;1.27;;;10.30;99.90;;;;;;5056238;28;20014;-61
2021/05/19 04:30:52;;;;;;;4.22;1.20;;;10.30;99.90;;;;;;5053484;28;20565;-61
2021/05/19 04:33:19;;;;;;;5.63;1.60;;;10.30;99.90;;;;;;5052262;28;20017;-63
2021/05/19 04:35:45;;;;;;;7.60;1.63;;;10.30;99.90;;;;;;5053698;28;20083;-64
2021/05/19 04:38:11;;;;;;;7.07;1.13;;;10.40;99.90;;;;;;5058452;28;20520;-63
2021/05/19 04:40:37;;;;;;;5.90;1.27;;;10.30;99.90;;;;;;5056219;28;20056;-63
2021/05/19 04:43:08;;;;;;;4.20;1.02;;;10.30;99.90;;;;;;5052298;28;20062;-64
2021/05/19 04:45:34;;;;;;;7.32;1.52;;;10.30;99.90;;;;;;5052127;28;20017;-63
2021/05/19 04:47:59;;;;;;;8.60;1.48;;;10.30;99.90;;;;;;5050635;28;20033;-63
2021/05/19 04:50:25;;;;;;;2.60;0.98;;;10.30;99.90;;;;;;5067262;28;20508;-63
2021/05/19 04:52:51;;;;;;;6.28;1.35;;;10.40;99.90;;;;;;5058825;28;20488;-63
2021/05/19 04:55:17;;;;;;;5.07;1.40;;;10.40;99.90;;;;;;5050773;28;20032;-63
2021/05/19 04:57:43;;;;;;;9.02;1.58;;;10.50;99.90;;;;;;5051594;28;20685;-63
2021/05/19 05:00:10;;;;;;;2.88;1.00;;;10.40;99.90;;;;;;5051049;28;20075;-63
2021/05/19 05:02:37;;;;;;;9.43;1.17;;;10.50;99.90;;;;;;5058178;28;20036;-63
2021/05/19 05:05:07;;;;;;;8.27;1.77;;;10.60;99.90;;;;;;5057207;28;20021;-63
2021/05/19 05:07:33;;;;;;;6.43;1.67;;;10.70;99.90;;;;;;5054287;28;20100;-62
2021/05/19 05:10:00;;;;;;;6.82;1.27;;;10.50;99.90;;;;;;5056135;28;20104;-62
2021/05/19 05:12:26;;;;;;;7.05;1.60;;;10.60;99.90;;;;;;5054505;28;20051;-63
2021/05/19 05:14:52;;;;;;;4.13;1.50;;;10.60;99.90;;;;;;5067105;28;20108;-63
2021/05/19 05:17:17;;;;;;;5.03;1.50;;;10.60;99.90;;;;;;5060070;28;20021;-63
2021/05/19 05:19:43;;;;;;;4.82;1.55;;;10.50;99.90;;;;;;5051643;28;20083;-63
2021/05/19 05:22:09;;;;;;;6.22;1.80;;;10.60;99.90;;;;;;5059641;28;20033;-64
2021/05/19 05:24:35;;;;;;;8.15;1.55;;;10.40;99.90;;;;;;5062929;28;20033;-63
2021/05/19 05:27:01;;;;;;;7.80;1.50;;;10.40;99.90;;;;;;5059193;28;20367;-61
2021/05/19 05:29:27;;;;;;;3.97;1.85;;;10.50;99.90;;;;;;5051481;28;20032;-61
2021/05/19 05:31:53;;;;;;;7.05;1.85;;;10.70;99.90;;;;;;5058198;28;20572;-61
2021/05/19 05:34:18;;;;;;;10.68;1.60;;;10.70;99.90;;;;;;5054557;28;20041;-62
2021/05/19 05:36:44;;;;;;;6.18;1.30;;;10.70;99.90;;;;;;5057293;28;20049;-61
2021/05/19 05:39:09;;;;;;;9.63;1.23;;;10.70;99.90;;;;;;5054272;28;20516;-62
2021/05/19 05:41:36;;;;;;;8.55;2.00;;;10.80;99.90;;;;;;5056012;28;20068;-62
2021/05/19 05:44:02;;;;;;;10.50;1.65;;;10.90;99.90;;;;;;5065015;28;20108;-62
2021/05/19 05:46:28;;;;;;;7.38;1.75;;;10.80;99.90;;;;;;5057378;28;20025;-62
2021/05/19 05:48:54;;;;;;;8.60;1.42;;;10.90;99.90;;;;;;5059127;28;20117;-62
2021/05/19 05:51:20;;;;;;;8.27;1.42;;;11.00;99.90;;;;;;5055431;28;20024;-62
2021/05/19 05:53:45;;;;;;;7.45;1.48;;;10.90;99.90;;;;;;5055442;28;20021;-61
2021/05/19 05:56:11;;;;;;;13.35;1.83;;;11.00;99.90;;;;;;5068150;28;20089;-62
2021/05/19 05:58:37;;;;;;;5.82;2.13;;;10.90;99.90;;;;;;5065938;28;20477;-63
2021/05/19 06:01:02;;;;;;;8.75;2.03;;;10.90;99.90;;;;;;5063709;28;20143;-62
2021/05/19 06:03:28;;;;;;;4.45;1.70;;;11.10;99.90;;;;;;5055359;28;20052;-62
2021/05/19 06:05:54;;;;;;;6.20;1.58;;;11.10;99.90;;;;;;5062153;28;20056;-61
2021/05/19 06:08:19;;;;;;;6.22;1.60;;;11.20;99.90;;;;;;5061701;28;20047;-62
2021/05/19 06:10:45;;;;;;;8.15;1.63;;;11.00;99.90;;;;;;5062147;28;20025;-62
2021/05/19 06:13:11;;;;;;;8.85;1.67;;;11.00;99.90;;;;;;5068783;28;20527;-61
2021/05/19 06:15:36;;;;;;;7.15;1.80;;;11.20;99.90;;;;;;5062290;28;20025;-61
2021/05/19 06:18:02;;;;;;;6.03;1.63;;;11.10;99.90;;;;;;5061260;28;20107;-61
2021/05/19 06:20:28;;;;;;;5.28;1.98;;;11.30;99.90;;;;;;5063932;28;20024;-61
2021/05/19 06:22:54;;;;;;;6.22;2.15;;;11.20;99.90;;;;;;5061351;28;20078;-62
2021/05/19 06:25:19;;;;;;;6.82;2.33;;;11.20;99.90;;;;;;5065781;28;20021;-61
2021/05/19 06:27:45;;;;;;;6.45;1.70;;;11.30;99.90;;;;;;5059646;28;20508;-62
2021/05/19 06:30:11;;;;;;;8.13;1.73;;;11.20;99.90;;;;;;5066531;28;20027;-62
2021/05/19 06:32:37;;;;;;;5.80;1.75;;;11.40;99.90;;;;;;5059748;28;20516;-61
2021/05/19 06:35:04;;;;;;;6.22;1.90;;;11.50;99.90;;;;;;5065526;28;20017;-61
2021/05/19 06:37:29;;;;;;;38.53;3.20;;;11.60;99.90;;;;;;5062996;28;20029;-61
2021/05/19 06:39:55;;;;;;;8.10;2.08;;;11.60;99.90;;;;;;5060844;28;20027;-61
2021/05/19 06:42:20;;;;;;;13.00;2.47;;;11.50;99.90;;;;;;5062247;28;20032;-61
2021/05/19 06:44:47;;;;;;;10.07;1.83;;;11.60;99.90;;;;;;5052921;28;20434;-62
2021/05/19 06:47:12;;;;;;;6.72;2.13;;;11.70;99.90;;;;;;5058661;28;20107;-61
2021/05/19 06:49:38;;;;;;;10.88;1.50;;;11.70;99.90;;;;;;5057080;28;20093;-62
2021/05/19 06:52:04;;;;;;;8.55;1.50;;;11.70;99.90;;;;;;5053092;28;20028;-62
2021/05/19 06:54:30;;;;;;;6.95;1.73;;;11.80;99.90;;;;;;5050761;28;20491;-62
2021/05/19 06:56:55;;;;;;;6.90;1.85;;;11.80;99.90;;;;;;5055855;28;20093;-62
2021/05/19 06:59:22;;;;;;;4.38;1.50;;;12.00;99.90;;;;;;5054634;28;20512;-62
2021/05/19 07:01:48;;;;;;;7.38;1.40;;;12.40;99.90;;;;;;5057757;28;20036;-62
2021/05/19 07:04:15;;;;;;;4.82;1.50;;;12.20;99.90;;;;;;5054102;28;20032;-62
2021/05/19 07:06:40;;;;;;;11.27;2.00;;;12.20;99.90;;;;;;5052790;28;20055;-61
2021/05/19 07:09:06;;;;;;;5.20;1.40;;;12.20;99.90;;;;;;5065876;28;20078;-61
2021/05/19 07:11:32;;;;;;;3.03;1.27;;;12.40;99.90;;;;;;5065192;28;20055;-61
2021/05/19 07:14:00;;;;;;;11.90;2.30;;;12.30;99.90;;;;;;5064861;28;20036;-61
2021/05/19 07:16:26;;;;;;;7.68;1.38;;;12.30;99.90;;;;;;5054290;28;20029;-61
2021/05/19 07:18:56;;;;;;;7.07;1.38;;;12.50;99.90;;;;;;5063188;28;20023;-61
2021/05/19 07:21:23;;;;;;;5.00;1.40;;;12.40;99.90;;;;;;5057955;28;20053;-61
2021/05/19 07:23:49;;;;;;;4.85;1.48;;;12.40;99.90;;;;;;5063710;28;20524;-61
2021/05/19 07:26:15;;;;;;;11.32;1.77;;;12.70;99.90;;;;;;5067847;28;20035;-61
2021/05/19 07:28:41;;;;;;;3.30;1.00;;;12.60;99.90;;;;;;5075715;28;20013;-62
2021/05/19 07:31:07;;;;;;;4.93;1.48;;;12.70;99.90;;;;;;5063533;28;20020;-62
2021/05/19 07:33:33;;;;;;;3.35;1.00;;;12.90;99.90;;;;;;5067098;28;20691;-62
2021/05/19 07:36:00;;;;;;;3.78;1.25;;;13.10;99.90;;;;;;5068839;28;20052;-62
2021/05/19 07:38:26;;;;;;;4.72;1.17;;;13.40;99.90;;;;;;5059432;28;20056;-61
2021/05/19 07:40:52;;;;;;;2.25;1.20;;;13.60;99.90;;;;;;5068074;28;20092;-62
2021/05/19 07:43:18;;;;;;;8.25;0.98;;;13.30;99.90;;;;;;5063605;28;20025;-62
2021/05/19 07:45:44;;;;;;;4.28;1.45;;;13.40;99.90;;;;;;5054777;28;20108;-61
2021/05/19 07:48:10;;;;;;;4.72;1.02;;;13.30;99.90;;;;;;5059088;28;20460;-62
2021/05/19 07:50:37;;;;;;;3.83;1.00;;;13.50;99.90;;;;;;5067654;28;20080;-62
2021/05/19 07:53:03;;;;;;;5.80;1.15;;;13.50;99.90;;;;;;5055614;28;20061;-62
2021/05/19 07:55:40;;;;;;;2.72;1.02;;;13.30;99.90;;;;;;5060014;28;20045;-63
2021/05/19 07:58:13;;;;;;;4.88;1.20;;;13.10;99.90;;;;;;5056052;28;20051;-62
2021/05/19 08:01:08;;;;;;;3.90;1.00;;;13.00;99.90;;;;;;5060223;28;20047;-61
2021/05/19 08:03:25;;;;;;;2.67;0.95;;;13.10;99.90;;;;;;5056214;28;20484;-62
2021/05/19 08:05:50;;;;;;;5.07;1.20;;;13.20;99.90;;;;;;5050784;28;20028;-62
2021/05/19 08:08:17;;;;;;;5.07;0.70;;;13.50;99.90;;;;;;5062078;28;20403;-62
2021/05/19 08:10:44;;;;;;;4.25;1.10;;;13.80;99.90;;;;;;5055207;28;20048;-64
2021/05/19 08:13:09;;;;;;;7.05;1.15;;;13.90;99.90;;;;;;5064754;28;20081;-62
2021/05/19 08:15:35;;;;;;;2.63;0.68;;;14.20;99.90;;;;;;5065181;28;20108;-62
2021/05/19 08:18:06;;;;;;;4.03;1.20;;;14.30;99.90;;;;;;5060161;28;20032;-61
2021/05/19 08:20:31;;;;;;;6.53;1.20;;;14.60;99.90;;;;;;5052606;28;20520;-61
2021/05/19 08:22:58;;;;;;;6.57;1.20;;;14.20;99.90;;;;;;5056758;28;20063;-61
2021/05/19 08:25:23;;;;;;;3.80;0.73;;;14.40;99.90;;;;;;5058310;28;20028;-61
2021/05/19 08:27:49;;;;;;;2.15;0.60;;;14.60;99.90;;;;;;5051493;28;20103;-62
2021/05/19 08:30:16;;;;;;;4.85;0.70;;;14.50;99.90;;;;;;5054557;28;20059;-62
2021/05/19 08:32:42;;;;;;;3.15;0.45;;;14.30;99.90;;;;;;5057357;28;20028;-62
2021/05/19 08:35:08;;;;;;;3.17;0.60;;;14.10;99.90;;;;;;5064475;28;20433;-62
2021/05/19 08:37:33;;;;;;;1.63;0.63;;;14.00;99.90;;;;;;5059326;28;20034;-61
2021/05/19 08:39:59;;;;;;;3.00;0.98;;;14.30;99.90;;;;;;5052529;28;20025;-62
2021/05/19 08:42:26;;;;;;;5.18;1.05;;;14.40;99.90;;;;;;5050397;28;20037;-64
2021/05/19 08:44:52;;;;;;;2.47;0.80;;;14.30;99.90;;;;;;5051074;28;20028;-62
2021/05/19 08:47:26;;;;;;;4.65;0.82;;;14.30;99.90;;;;;;5053903;28;20021;-62
2021/05/19 08:49:52;;;;;;;1.80;0.70;;;14.50;99.90;;;;;;5049986;28;20036;-62
2021/05/19 08:52:19;;;;;;;3.10;0.80;;;15.00;99.90;;;;;;5059364;28;20047;-62
2021/05/19 08:54:45;;;;;;;3.88;0.93;;;15.10;99.90;;;;;;5056247;28;20033;-62
2021/05/19 08:57:13;;;;;;;4.10;0.57;;;15.00;99.90;;;;;;5056471;28;20032;-62
2021/05/19 08:59:39;;;;;;;4.25;0.80;;;14.80;99.90;;;;;;5054251;28;20021;-62
2021/05/19 09:02:12;;;;;;;3.50;0.80;;;15.00;99.90;;;;;;5052902;28;20037;-62
2021/05/19 09:04:39;;;;;;;2.03;0.70;;;14.80;99.90;;;;;;5055671;28;20482;-63
2021/05/19 09:07:05;;;;;;;3.90;0.82;;;14.70;99.90;;;;;;5051969;28;20041;-63
2021/05/19 09:09:36;;;;;;;2.55;0.82;;;14.60;99.90;;;;;;5058956;28;20028;-62
2021/05/19 09:12:16;;;;;;;2.08;0.63;;;14.80;99.90;;;;;;5055642;28;20034;-62
2021/05/19 09:14:50;;;;;;;6.50;0.60;;;15.50;99.90;;;;;;5060961;28;20036;-61
2021/05/19 09:17:26;;;;;;;4.43;0.70;;;15.60;99.90;;;;;;5065956;28;20068;-62
2021/05/19 09:20:00;;;;;;;1.88;0.70;;;15.60;99.90;;;;;;5063805;28;20075;-61
2021/05/19 09:22:32;;;;;;;2.58;0.80;;;15.40;99.90;;;;;;5065575;28;20496;-62
2021/05/19 09:24:59;;;;;;;2.38;0.65;;;15.90;99.90;;;;;;5058772;28;20032;-61
2021/05/19 09:27:41;;;;;;;3.75;0.80;;;15.60;99.90;;;;;;5062268;28;20553;-61
2021/05/19 09:30:08;;;;;;;1.30;0.60;;;15.00;99.90;;;;;;5063193;28;20501;-62
2021/05/19 09:32:39;;;;;;;3.90;0.70;;;15.10;99.90;;;;;;5059939;28;20029;-62
2021/05/19 09:35:09;;;;;;;2.47;1.00;;;15.20;99.90;;;;;;5062256;28;20035;-62
2021/05/19 09:37:35;;;;;;;2.70;0.70;;;15.20;99.90;;;;;;5058623;28;20029;-62
2021/05/19 09:40:11;;;;;;;3.05;0.90;;;15.10;99.90;;;;;;5071388;28;20388;-62
2021/05/19 09:42:36;;;;;;;1.98;0.88;;;15.60;99.90;;;;;;5057676;28;20040;-62
2021/05/19 09:45:18;;;;;;;2.15;0.80;;;16.10;99.90;;;;;;5071930;28;20016;-62
2021/05/19 09:47:45;;;;;;;1.60;0.57;;;15.90;99.90;;;;;;5060939;28;20043;-62
2021/05/19 09:50:14;;;;;;;2.72;0.70;;;16.00;99.90;;;;;;5072160;28;20100;-62
2021/05/19 09:53:00;;;;;;;2.25;0.70;;;16.30;99.90;;;;;;5059905;28;20064;-62
2021/05/19 09:55:26;;;;;;;3.17;0.60;;;16.60;99.90;;;;;;5062627;28;20504;-62
2021/05/19 09:57:51;;;;;;;3.17;0.73;;;16.60;99.90;;;;;;5062757;28;20024;-63
2021/05/19 10:00:22;;;;;;;1.85;0.52;;;16.90;99.90;;;;;;5061124;28;20060;-63
2021/05/19 10:02:48;;;;;;;2.00;0.60;;;17.00;99.90;;;;;;5060368;28;20112;-63
2021/05/19 10:05:24;;;;;;;1.63;0.60;;;17.10;99.90;;;;;;5065579;28;20111;-64
2021/05/19 10:07:50;;;;;;;1.95;0.82;;;17.00;99.90;;;;;;5061298;28;20046;-63
2021/05/19 10:10:16;;;;;;;3.47;0.55;;;17.00;99.90;;;;;;5063913;28;20063;-63
2021/05/19 10:12:44;;;;;;;2.40;0.70;;;16.70;99.90;;;;;;5059187;28;20028;-64
2021/05/19 10:15:13;;;;;;;1.52;0.57;;;16.40;99.90;;;;;;5058571;28;20536;-63
2021/05/19 10:17:44;;;;;;;3.13;1.13;;;16.00;99.90;;;;;;5060566;28;20550;-62
2021/05/19 10:20:14;;;;;;;1.58;0.60;;;15.90;99.90;;;;;;5065926;28;20021;-62
2021/05/19 10:22:43;;;;;;;2.92;0.77;;;16.10;99.90;;;;;;5060940;28;20044;-62
2021/05/19 10:25:19;;;;;;;2.53;0.70;;;16.20;99.90;;;;;;5054114;28;20075;-62
2021/05/19 10:27:54;;;;;;;2.70;0.80;;;16.40;99.90;;;;;;5057790;28;20120;-62
2021/05/19 10:30:34;;;;;;;3.70;1.13;;;16.40;99.90;;;;;;5052278;28;20415;-61
2021/05/19 10:33:00;;;;;;;3.10;1.20;;;16.30;99.90;;;;;;5051362;28;20040;-62
2021/05/19 10:35:37;;;;;;;1.45;0.90;;;16.40;99.90;;;;;;5055936;28;20041;-62
2021/05/19 10:38:17;;;;;;;1.75;0.80;;;16.10;99.90;;;;;;5056969;28;20033;-62
2021/05/19 10:40:54;;;;;;;1.35;0.65;;;16.10;99.90;;;;;;5056934;28;20512;-62
2021/05/19 10:43:20;;;;;;;2.05;0.77;;;16.30;99.90;;;;;;5058611;28;20028;-62
2021/05/19 10:46:04;;;;;;;1.02;0.63;;;16.40;99.90;;;;;;5058294;28;20048;-62
2021/05/19 10:48:32;;;;;;;2.30;0.70;;;16.50;99.90;;;;;;5058387;28;20029;-61
2021/05/19 10:51:18;;;;;;;1.42;0.60;;;16.40;99.90;;;;;;5055389;28;20028;-62
2021/05/19 11:00:11;;;;;;;2.55;1.10;;;17.70;99.90;;;;;;5066403;28;20115;-61
2021/05/19 11:02:52;;;;;;;2.38;0.52;;;17.70;99.90;;;;;;5065213;28;20040;-61
2021/05/19 11:05:19;;;;;;;2.72;0.68;;;17.40;99.90;;;;;;5060894;28;20031;-62
2021/05/19 11:08:06;;;;;;;1.63;0.63;;;17.00;99.90;;;;;;5061341;28;20053;-61
2021/05/19 11:10:39;;;;;;;3.25;0.80;;;16.50;99.90;;;;;;5050653;28;20631;-62
2021/05/19 11:13:06;;;;;;;3.95;0.60;;;16.40;99.90;;;;;;5053133;28;20035;-61
2021/05/19 11:20:55;;;;;;;1.13;0.60;;;16.20;99.90;;;;;;5065916;28;20090;-61
2021/05/19 11:23:21;;;;;;;1.45;0.50;;;16.60;99.90;;;;;;5055208;28;20108;-61
2021/05/19 11:25:47;;;;;;;1.15;0.52;;;17.10;99.90;;;;;;5052569;28;20025;-62
2021/05/19 11:28:25;;;;;;;2.25;0.68;;;17.60;99.90;;;;;;5062173;28;20035;-61
2021/05/19 11:31:10;;;;;;;3.25;0.70;;;17.90;99.90;;;;;;5065127;28;20028;-62
2021/05/19 11:33:54;;;;;;;4.05;0.80;;;18.00;99.90;;;;;;5060033;28;20024;-62
2021/05/19 11:36:42;;;;;;;0.90;0.52;;;18.00;99.90;;;;;;5051629;28;20052;-61
2021/05/19 11:39:22;;;;;;;2.08;0.68;;;17.90;99.90;;;;;;5058577;28;20494;-62
2021/05/19 11:41:50;;;;;;;2.17;0.52;;;17.70;99.90;;;;;;5061098;28;20028;-65
2021/05/19 11:44:55;;;;;;;1.45;0.32;;;17.30;99.90;;;;;;5057061;28;20028;-61
2021/05/19 11:47:40;;;;;;;3.15;0.40;;;17.70;99.90;;;;;;5024941;28;20036;-61
2021/05/19 11:50:23;;;;;;;4.43;0.73;;;17.90;99.90;;;;;;5063902;28;20021;-61
2021/05/19 11:53:10;;;;;;;4.93;0.70;;;17.30;99.90;;;;;;5056563;28;20101;-61
2021/05/19 11:55:45;;;;;;;3.17;0.55;;;17.30;99.90;;;;;;5059848;28;20086;-61
2021/05/19 11:58:17;;;;;;;1.35;0.40;;;17.30;99.90;;;;;;5061070;28;20501;-64
2021/05/19 12:00:45;;;;;;;1.40;0.32;;;17.40;99.90;;;;;;5063185;28;20036;-63
2021/05/19 12:03:13;;;;;;;3.50;0.47;;;17.80;99.90;;;;;;5055536;28;20109;-64
2021/05/19 12:05:54;;;;;;;2.28;0.50;;;18.00;99.90;;;;;;5052888;28;20025;-64
2021/05/19 12:08:22;;;;;;;5.00;0.30;;;18.00;99.90;;;;;;5060001;28;20025;-64
2021/05/19 12:11:02;;;;;;;1.40;0.60;;;18.30;99.90;;;;;;5064655;28;20113;-64
2021/05/19 12:13:29;;;;;;;1.45;0.32;;;18.50;99.90;;;;;;5054668;28;20017;-63
2021/05/19 12:15:55;;;;;;;2.90;0.63;;;18.20;99.90;;;;;;5046537;28;20032;-64
2021/05/19 12:18:20;;;;;;;3.97;1.75;;;18.40;99.90;;;;;;5059973;28;20024;-64
2021/05/19 12:20:49;;;;;;;1.42;0.73;;;18.90;99.90;;;;;;5062875;28;20024;-64
2021/05/19 12:23:15;;;;;;;1.40;0.40;;;18.90;99.90;;;;;;5055879;28;20128;-64
2021/05/19 12:25:43;;;;;;;0.50;0.28;;;18.90;99.90;;;;;;5058766;28;20104;-63
2021/05/19 12:28:10;;;;;;;0.88;0.25;;;18.90;99.90;;;;;;5048935;28;20028;-64
2021/05/19 12:30:44;;;;;;;1.38;0.32;;;18.80;99.90;;;;;;5059636;28;20443;-65
2021/05/19 12:33:11;;;;;;;0.47;0.30;;;19.60;99.90;;;;;;5073496;28;20038;-64
2021/05/19 12:35:42;;;;;;;2.28;0.40;;;19.60;99.90;;;;;;5075012;28;20075;-66
2021/05/19 12:38:08;;;;;;;2.85;0.30;;;20.00;99.90;;;;;;5073152;28;20033;-64
2021/05/19 12:40:36;;;;;;;0.63;0.38;;;20.10;99.90;;;;;;5072492;28;20057;-64
2021/05/19 12:43:04;;;;;;;0.63;0.40;;;19.60;99.90;;;;;;5058674;28;20013;-64
2021/05/19 12:45:38;;;;;;;3.25;0.25;;;19.80;99.90;;;;;;5061931;28;20059;-63
2021/05/19 12:48:09;;;;;;;1.05;0.47;;;18.80;99.90;;;;;;5051500;28;20602;-64
2021/05/19 12:51:00;;;;;;;0.70;0.30;;;18.50;99.90;;;;;;5049803;28;20516;-64
2021/05/19 12:53:31;;;;;;;1.13;0.43;;;18.50;99.90;;;;;;5039360;28;20075;-63
2021/05/19 12:56:00;;;;;;;1.83;0.40;;;18.70;99.90;;;;;;5049936;28;20021;-65
2021/05/19 12:58:28;;;;;;;0.75;0.30;;;18.60;99.90;;;;;;5034080;28;20032;-63
2021/05/19 13:01:01;;;;;;;2.35;0.40;;;18.20;99.90;;;;;;5050103;28;20029;-63
2021/05/19 13:03:31;;;;;;;0.80;0.20;;;18.50;99.90;;;;;;5055892;28;20107;-63
2021/05/19 13:06:02;;;;;;;0.60;0.30;;;19.00;99.90;;;;;;5066641;28;20069;-62